Time,TemperatureF,DewpointF,PressureIn,WindDirection,WindDirectionDegrees,WindSpeedMPH,WindSpeedGustMPH,Humidity,HourlyPrecipIn,Conditions,Clouds,dailyrainin,SoftwareType,DateUTC
2013-01-08 00:09:00,37.9,31.0,30.11,SE,143,0.0,0.0,76,0.00,,,0.00,weatherlink.com 1.10,2013-01-08 06:09:00,
2013-01-08 00:24:00,37.5,31.0,30.11,SE,143,0.0,0.0,78,0.00,,,0.00,weatherlink.com 1.10,2013-01-08 06:24:00,
2013-01-08 00:39:00,37.9,32.0,30.11,SE,143,0.0,0.0,78,0.00,,,0.00,weatherlink.com 1.10,2013-01-08 06:39:00,
2013-01-08 00:58:00,38.4,32.0,30.12,SE,143,0.0,0.0,77,0.00,,,0.00,weatherlink.com 1.10,2013-01-08 06:58:00,
2013-01-08 01:09:00,38.3,32.0,30.11,SE,143,0.0,0.0,77,0.00,,,0.00,weatherlink.com 1.10,2013-01-08 07:09:00,
2013-01-08 01:24:00,38.3,32.0,30.11,SE,143,0.0,0.0,77,0.00,,,0.00,weatherlink.com 1.10,2013-01-08 07:24:00,
2013-01-08 01:39:00,38.0,32.0,30.11,SE,143,0.0,0.0,78,0.00,,,0.00,weatherlink.com 1.10,2013-01-08 07:39:00,
2013-01-08 01:54:00,37.5,32.0,30.11,SE,143,0.0,0.0,79,0.00,,,0.00,weatherlink.com 1.10,2013-01-08 07:54:00,
2013-01-08 02:09:00,37.1,31.0,30.11,SE,143,0.0,0.0,80,0.00,,,0.00,weatherlink.com 1.10,2013-01-08 08:09:00,
2013-01-08 02:24:00,36.8,31.0,30.10,SE,143,0.0,0.0,80,0.00,,,0.00,weatherlink.com 1.10,2013-01-08 08:24:00,
2013-01-08 02:39:00,36.8,32.0,30.10,SE,143,0.0,0.0,81,0.00,,,0.00,weatherlink.com 1.10,2013-01-08 08:39:00,
2013-01-08 02:54:00,37.1,32.0,30.09,SE,143,0.0,0.0,81,0.00,,,0.00,weatherlink.com 1.10,2013-01-08 08:54:00,
2013-01-08 03:10:00,37.4,32.0,30.09,SE,143,0.0,0.0,80,0.00,,,0.00,weatherlink.com 1.10,2013-01-08 09:10:00,
2013-01-08 03:25:00,37.7,32.0,30.09,SE,143,0.0,0.0,79,0.00,,,0.00,weatherlink.com 1.10,2013-01-08 09:25:00,
2013-01-08 03:40:00,37.8,32.0,30.08,SE,143,0.0,0.0,79,0.00,,,0.00,weatherlink.com 1.10,2013-01-08 09:40:00,
2013-01-08 03:55:00,38.1,32.0,30.08,SE,143,0.0,0.0,79,0.00,,,0.00,weatherlink.com 1.10,2013-01-08 09:55:00,
2013-01-08 04:10:00,38.1,32.0,30.08,SE,143,0.0,0.0,80,0.00,,,0.00,weatherlink.com 1.10,2013-01-08 10:10:00,
2013-01-08 04:25:00,38.4,32.0,30.08,SE,143,0.0,1.0,79,0.00,,,0.00,weatherlink.com 1.10,2013-01-08 10:25:00,
2013-01-08 04:40:00,38.8,33.0,30.08,SE,142,0.0,0.0,78,0.00,,,0.00,weatherlink.com 1.10,2013-01-08 10:40:00,
2013-01-08 04:55:00,39.3,33.0,30.07,SE,134,1.0,3.0,77,0.00,,,0.00,weatherlink.com 1.10,2013-01-08 10:55:00,
2013-01-08 05:10:00,39.6,33.0,30.06,SE,131,1.0,3.0,76,0.00,,,0.00,weatherlink.com 1.10,2013-01-08 11:10:00,
2013-01-08 05:25:00,39.8,33.0,30.07,SE,130,0.0,4.0,76,0.00,,,0.00,weatherlink.com 1.10,2013-01-08 11:25:00,
2013-01-08 05:40:00,40.0,33.0,30.07,SE,130,0.0,2.0,76,0.00,,,0.00,weatherlink.com 1.10,2013-01-08 11:40:00,
2013-01-08 05:55:00,40.3,33.0,30.07,SE,130,0.0,0.0,75,0.00,,,0.00,weatherlink.com 1.10,2013-01-08 11:55:00,
2013-01-08 06:10:00,40.4,33.0,30.08,SE,130,0.0,0.0,75,0.00,,,0.00,weatherlink.com 1.10,2013-01-08 12:10:00,
2013-01-08 06:25:00,40.6,33.0,30.08,SE,130,0.0,2.0,75,0.00,,,0.00,weatherlink.com 1.10,2013-01-08 12:25:00,
2013-01-08 06:40:00,41.2,34.0,30.08,SE,130,0.0,3.0,74,0.00,,,0.00,weatherlink.com 1.10,2013-01-08 12:40:00,
2013-01-08 06:55:00,41.3,34.0,30.08,SE,129,0.0,3.0,74,0.00,,,0.00,weatherlink.com 1.10,2013-01-08 12:55:00,
2013-01-08 07:24:00,41.1,33.0,30.08,ESE,119,0.0,1.0,74,0.00,,,0.00,weatherlink.com 1.10,2013-01-08 13:24:00,
2013-01-08 07:40:00,41.1,34.0,30.08,ESE,109,1.0,3.0,75,0.00,,,0.00,weatherlink.com 1.10,2013-01-08 13:40:00,
2013-01-08 07:55:00,41.2,34.0,30.08,ESE,109,0.0,3.0,75,0.00,,,0.00,weatherlink.com 1.10,2013-01-08 13:55:00,
2013-01-08 08:10:00,41.4,34.0,30.08,ESE,108,0.0,3.0,75,0.00,,,0.00,weatherlink.com 1.10,2013-01-08 14:10:00,
2013-01-08 08:28:00,41.9,35.0,30.09,ESE,108,0.0,3.0,75,0.00,,,0.00,weatherlink.com 1.10,2013-01-08 14:28:00,
2013-01-08 08:40:00,42.3,35.0,30.09,ESE,122,2.0,3.0,74,0.00,,,0.00,weatherlink.com 1.10,2013-01-08 14:40:00,
2013-01-08 08:55:00,42.8,35.0,30.10,ESE,118,0.0,4.0,74,0.00,,,0.00,weatherlink.com 1.10,2013-01-08 14:55:00,
2013-01-08 09:10:00,43.6,36.0,30.09,ESE,112,3.0,4.0,74,0.00,,,0.00,weatherlink.com 1.10,2013-01-08 15:10:00,
2013-01-08 09:25:00,44.2,36.0,30.09,SE,127,2.0,5.0,73,0.00,,,0.00,weatherlink.com 1.10,2013-01-08 15:25:00,
2013-01-08 09:40:00,44.9,36.0,30.10,SE,126,0.0,6.0,72,0.00,,,0.00,weatherlink.com 1.10,2013-01-08 15:40:00,
2013-01-08 09:55:00,45.8,37.0,30.10,SSE,148,0.0,6.0,71,0.00,,,0.00,weatherlink.com 1.10,2013-01-08 15:55:00,
2013-01-08 10:10:00,46.5,38.0,30.10,SSE,151,4.0,8.0,71,0.00,,,0.00,weatherlink.com 1.10,2013-01-08 16:10:00,
2013-01-08 10:25:00,47.1,38.0,30.10,SE,127,5.0,5.0,70,0.00,,,0.00,weatherlink.com 1.10,2013-01-08 16:25:00,
2013-01-08 10:40:00,47.6,38.0,30.10,SE,126,3.0,5.0,70,0.00,,,0.00,weatherlink.com 1.10,2013-01-08 16:40:00,
2013-01-08 10:55:00,48.0,38.0,30.10,SE,145,4.0,6.0,69,0.00,,,0.00,weatherlink.com 1.10,2013-01-08 16:55:00,
2013-01-08 11:11:00,48.9,39.0,30.09,SE,128,4.0,9.0,69,0.00,,,0.00,weatherlink.com 1.10,2013-01-08 17:11:00,
2013-01-08 11:26:00,49.7,39.0,30.08,SSE,160,3.0,10.0,66,0.00,,,0.00,weatherlink.com 1.10,2013-01-08 17:26:00,
2013-01-08 11:41:00,50.2,40.0,30.08,SSE,167,4.0,11.0,67,0.00,,,0.00,weatherlink.com 1.10,2013-01-08 17:41:00,
2013-01-08 11:56:00,50.2,40.0,30.07,SE,127,5.0,9.0,67,0.00,,,0.00,weatherlink.com 1.10,2013-01-08 17:56:00,
2013-01-08 12:11:00,49.9,40.0,30.06,SSE,154,5.0,12.0,69,0.00,,,0.00,weatherlink.com 1.10,2013-01-08 18:11:00,
2013-01-08 12:26:00,49.4,40.0,30.05,SE,140,6.0,12.0,71,0.00,,,0.00,weatherlink.com 1.10,2013-01-08 18:26:00,
2013-01-08 12:41:00,49.1,41.0,30.05,SSE,160,8.0,10.0,73,0.00,,,0.00,weatherlink.com 1.10,2013-01-08 18:41:00,
2013-01-08 12:56:00,49.7,41.0,30.03,SE,128,4.0,8.0,73,0.00,,,0.00,weatherlink.com 1.10,2013-01-08 18:56:00,
2013-01-08 13:11:00,50.2,42.0,30.02,SE,130,3.0,7.0,74,0.00,,,0.00,weatherlink.com 1.10,2013-01-08 19:11:00,
2013-01-08 13:26:00,50.1,43.0,30.01,ESE,104,4.0,5.0,76,0.00,,,0.00,weatherlink.com 1.10,2013-01-08 19:26:00,
2013-01-08 13:41:00,49.8,43.0,30.01,SE,128,0.0,4.0,78,0.00,,,0.00,weatherlink.com 1.10,2013-01-08 19:41:00,
2013-01-08 13:56:00,49.5,44.0,30.00,East,99,0.0,5.0,81,0.00,,,0.00,weatherlink.com 1.10,2013-01-08 19:56:00,
2013-01-08 14:11:00,49.0,44.0,30.00,ESE,106,3.0,5.0,83,0.00,,,0.00,weatherlink.com 1.10,2013-01-08 20:11:00,
2013-01-08 14:26:00,48.3,44.0,30.01,ESE,103,0.0,0.0,85,0.00,,,0.00,weatherlink.com 1.10,2013-01-08 20:26:00,
2013-01-08 14:41:00,48.1,44.0,30.01,ESE,103,0.0,0.0,87,0.00,,,0.00,weatherlink.com 1.10,2013-01-08 20:41:00,
2013-01-08 14:56:00,47.9,45.0,30.01,ENE,65,0.0,5.0,88,0.01,,,0.01,weatherlink.com 1.10,2013-01-08 20:56:00,
2013-01-08 15:11:00,48.1,45.0,30.00,ENE,65,0.0,0.0,90,0.02,,,0.02,weatherlink.com 1.10,2013-01-08 21:11:00,
2013-01-08 15:26:00,48.2,46.0,30.00,ENE,65,0.0,1.0,91,0.02,,,0.02,weatherlink.com 1.10,2013-01-08 21:26:00,
2013-01-08 15:41:00,48.3,46.0,30.01,ENE,65,0.0,0.0,91,0.03,,,0.03,weatherlink.com 1.10,2013-01-08 21:41:00,
2013-01-08 15:56:00,48.5,46.0,30.00,NNE,12,3.0,5.0,92,0.01,,,0.03,weatherlink.com 1.10,2013-01-08 21:56:00,
2013-01-08 16:11:00,48.6,47.0,30.00,NNE,17,5.0,8.0,93,0.01,,,0.03,weatherlink.com 1.10,2013-01-08 22:11:00,
2013-01-08 16:26:00,48.5,46.0,30.01,North,349,2.0,6.0,92,0.01,,,0.03,weatherlink.com 1.10,2013-01-08 22:26:00,
2013-01-08 16:41:00,48.5,46.0,30.00,NE,40,5.0,7.0,92,0.00,,,0.03,weatherlink.com 1.10,2013-01-08 22:41:00,
2013-01-08 16:56:00,48.5,46.0,30.00,NE,49,4.0,6.0,92,0.00,,,0.03,weatherlink.com 1.10,2013-01-08 22:56:00,
2013-01-08 17:11:00,48.6,46.0,30.02,NE,40,3.0,4.0,92,0.00,,,0.03,weatherlink.com 1.10,2013-01-08 23:11:00,
2013-01-08 17:26:00,48.5,46.0,30.03,ENE,57,2.0,4.0,92,0.00,,,0.03,weatherlink.com 1.10,2013-01-08 23:26:00,
2013-01-08 17:41:00,48.2,46.0,30.04,NE,36,2.0,6.0,93,0.00,,,0.03,weatherlink.com 1.10,2013-01-08 23:41:00,
2013-01-08 17:56:00,47.8,46.0,30.05,NNE,32,5.0,10.0,93,0.00,,,0.03,weatherlink.com 1.10,2013-01-08 23:56:00,
2013-01-08 18:11:00,47.5,46.0,30.05,NNE,12,8.0,11.0,94,0.00,,,0.03,weatherlink.com 1.10,2013-01-09 00:11:00,
2013-01-08 18:26:00,47.4,46.0,30.05,NNE,18,4.0,11.0,95,0.00,,,0.03,weatherlink.com 1.10,2013-01-09 00:26:00,
2013-01-08 18:41:00,47.0,46.0,30.05,NNE,29,7.0,11.0,95,0.00,,,0.03,weatherlink.com 1.10,2013-01-09 00:41:00,
2013-01-08 18:56:00,46.8,46.0,30.05,NE,50,10.0,11.0,95,0.01,,,0.04,weatherlink.com 1.10,2013-01-09 00:56:00,
2013-01-08 19:11:00,46.6,45.0,30.06,ENE,66,8.0,10.0,95,0.01,,,0.04,weatherlink.com 1.10,2013-01-09 01:11:00,
2013-01-08 19:26:00,46.4,45.0,30.07,NE,44,6.0,8.0,95,0.01,,,0.04,weatherlink.com 1.10,2013-01-09 01:26:00,
2013-01-08 19:41:00,46.3,45.0,30.06,NE,40,9.0,10.0,95,0.00,,,0.04,weatherlink.com 1.10,2013-01-09 01:41:00,
2013-01-08 19:56:00,46.3,45.0,30.07,NE,39,4.0,8.0,95,0.00,,,0.04,weatherlink.com 1.10,2013-01-09 01:56:00,
2013-01-08 20:11:00,46.4,45.0,30.06,NE,37,5.0,9.0,95,0.00,,,0.04,weatherlink.com 1.10,2013-01-09 02:11:00,
2013-01-08 20:26:00,46.4,45.0,30.06,NE,50,6.0,12.0,95,0.00,,,0.04,weatherlink.com 1.10,2013-01-09 02:26:00,
2013-01-08 20:41:00,46.4,45.0,30.07,NNE,32,5.0,8.0,96,0.00,,,0.04,weatherlink.com 1.10,2013-01-09 02:41:00,
2013-01-08 20:56:00,46.5,46.0,30.07,NE,51,6.0,9.0,96,0.00,,,0.04,weatherlink.com 1.10,2013-01-09 02:56:00,
2013-01-08 21:13:00,46.5,46.0,30.07,NE,47,6.0,9.0,96,0.00,,,0.04,weatherlink.com 1.10,2013-01-09 03:13:00,
2013-01-08 21:26:00,46.6,46.0,30.08,NE,53,4.0,10.0,96,0.00,,,0.04,weatherlink.com 1.10,2013-01-09 03:26:00,
2013-01-08 21:41:00,46.7,46.0,30.10,East,96,3.0,8.0,96,0.00,,,0.04,weatherlink.com 1.10,2013-01-09 03:41:00,
2013-01-08 21:56:00,46.7,46.0,30.10,ENE,74,2.0,5.0,96,0.00,,,0.04,weatherlink.com 1.10,2013-01-09 03:56:00,
2013-01-08 22:11:00,46.8,46.0,30.12,ENE,65,0.0,3.0,96,0.00,,,0.04,weatherlink.com 1.10,2013-01-09 04:11:00,
2013-01-08 22:26:00,46.8,46.0,30.11,North,5,4.0,5.0,96,0.00,,,0.04,weatherlink.com 1.10,2013-01-09 04:26:00,
2013-01-08 22:41:00,46.8,46.0,30.12,North,360,3.0,6.0,96,0.00,,,0.04,weatherlink.com 1.10,2013-01-09 04:41:00,
2013-01-08 22:56:00,47.0,46.0,30.12,NNE,26,6.0,7.0,96,0.00,,,0.04,weatherlink.com 1.10,2013-01-09 04:56:00,
2013-01-08 23:11:00,47.1,46.0,30.12,NNE,32,7.0,9.0,96,0.00,,,0.04,weatherlink.com 1.10,2013-01-09 05:11:00,
2013-01-08 23:26:00,47.2,46.0,30.12,NE,40,4.0,7.0,96,0.00,,,0.04,weatherlink.com 1.10,2013-01-09 05:26:00,
2013-01-08 23:41:00,47.2,46.0,30.13,NE,53,5.0,8.0,96,0.00,,,0.04,weatherlink.com 1.10,2013-01-09 05:41:00,
2013-01-08 23:56:00,47.2,46.0,30.13,NE,35,5.0,8.0,96,0.00,,,0.04,weatherlink.com 1.10,2013-01-09 05:56:00,